createdAt,value
2022-10-08T00:01:57.189Z,96369.39
2022-10-08T00:04:25.461Z,96365.98
2022-10-08T00:06:53.698Z,96362.93
2022-10-08T00:09:21.979Z,96360.71
2022-10-08T00:11:50.870Z,96351.66
2022-10-08T00:14:18.911Z,96353.13
2022-10-08T00:16:47.624Z,96349.77
2022-10-08T00:19:16.442Z,96348.09
2022-10-08T00:21:46.234Z,96345.90
2022-10-08T00:24:17.960Z,96337.25
2022-10-08T00:26:46.375Z,96335.60
2022-10-08T00:29:17.012Z,96333.03
2022-10-08T00:31:47.662Z,96329.79
2022-10-08T00:34:19.850Z,96327.42
2022-10-08T00:36:52.017Z,96323.93
2022-10-08T00:39:22.345Z,96325.88
2022-10-08T00:41:54.374Z,96319.20
2022-10-08T00:44:49.473Z,96318.17
2022-10-08T00:47:33.018Z,96314.02
2022-10-08T00:50:12.559Z,96310.90
2022-10-08T00:52:49.287Z,96310.98
2022-10-08T00:55:21.497Z,96306.56
2022-10-08T00:57:50.084Z,96306.12
2022-10-08T01:00:21.931Z,96304.02
2022-10-08T01:02:50.530Z,96302.86
2022-10-08T01:05:41.951Z,96304.74
2022-10-08T01:08:18.736Z,96304.27
2022-10-08T01:11:09.129Z,96304.80
2022-10-08T01:13:52.158Z,96302.75
2022-10-08T01:16:39.146Z,96302.06
2022-10-08T01:19:29.930Z,96300.02
2022-10-08T01:22:12.514Z,96299.77
2022-10-08T01:25:12.516Z,96299.02
2022-10-08T01:27:46.119Z,96300.48
2022-10-08T01:30:16.937Z,96296.90
2022-10-08T01:32:54.680Z,96295.16
2022-10-08T01:35:35.630Z,96288.58
2022-10-08T01:38:07.258Z,96286.01
2022-10-08T01:40:38.020Z,96286.55
2022-10-08T01:43:11.022Z,96283.42
2022-10-08T01:45:44.337Z,96284.04
2022-10-08T01:48:22.434Z,96281.57
2022-10-08T01:51:15.493Z,96276.11
2022-10-08T01:53:47.112Z,96279.79
2022-10-08T01:56:20.227Z,96279.57
2022-10-08T01:59:10.418Z,96280.13
2022-10-08T02:01:52.552Z,96276.98
2022-10-08T02:04:38.004Z,96274.40
2022-10-08T02:07:14.986Z,96277.23
2022-10-08T02:09:46.943Z,96276.92
2022-10-08T02:12:14.949Z,96281.45
2022-10-08T02:14:52.824Z,96275.13
2022-10-08T02:17:29.303Z,96276.64
2022-10-08T02:20:09.655Z,96277.83
2022-10-08T02:22:50.625Z,96278.16
2022-10-08T02:25:29.660Z,96275.73
2022-10-08T02:28:20.722Z,96272.59
2022-10-08T02:31:41.057Z,96275.86
2022-10-08T02:34:18.158Z,96274.31
2022-10-08T02:36:51.561Z,96274.27
2022-10-08T02:39:21.760Z,96273.90
2022-10-08T02:41:54.356Z,96270.13
2022-10-08T02:44:44.124Z,96271.81
2022-10-08T02:47:18.799Z,96271.13
2022-10-08T02:50:02.843Z,96271.21
2022-10-08T02:52:39.530Z,96269.82
2022-10-08T02:55:39.717Z,96264.68
2022-10-08T02:58:11.083Z,96259.58
2022-10-08T03:00:55.077Z,96261.54
2022-10-08T03:03:38.345Z,96260.92
2022-10-08T03:06:12.299Z,96260.71
2022-10-08T03:08:46.498Z,96257.41
2022-10-08T03:11:15.737Z,96256.70
2022-10-08T03:13:48.367Z,96256.05
2022-10-08T03:16:21.266Z,96256.40
2022-10-08T03:18:52.403Z,96259.95
2022-10-08T03:21:20.861Z,96260.30
2022-10-08T03:23:49.044Z,96257.03
2022-10-08T03:26:19.122Z,96258.29
2022-10-08T03:28:47.394Z,96259.59
2022-10-08T03:31:15.785Z,96257.45
2022-10-08T03:33:44.401Z,96254.92
2022-10-08T03:36:13.010Z,96252.80
2022-10-08T03:38:41.063Z,96252.85
2022-10-08T03:41:09.791Z,96249.83
2022-10-08T03:43:38.345Z,96249.88
2022-10-08T03:46:07.766Z,96250.05
2022-10-08T03:48:36.145Z,96245.76
2022-10-08T03:51:10.300Z,96246.81
2022-10-08T03:53:40.458Z,96243.11
2022-10-08T03:56:12.482Z,96240.55
2022-10-08T03:58:41.522Z,96246.30
2022-10-08T04:01:15.782Z,96246.02
2022-10-08T04:03:47.651Z,96244.42
2022-10-08T04:06:16.096Z,96241.21
2022-10-08T04:08:44.871Z,96241.26
2022-10-08T04:11:15.521Z,96236.80
2022-10-08T04:13:44.313Z,96233.10
2022-10-08T04:16:17.809Z,96233.05
2022-10-08T04:18:47.223Z,96232.48
2022-10-08T04:21:17.533Z,96233.55
2022-10-08T04:23:47.020Z,96234.37
2022-10-08T04:26:15.617Z,96233.11
2022-10-08T04:28:45.306Z,96236.34
2022-10-08T04:31:17.600Z,96234.61
2022-10-08T04:33:47.627Z,96232.95
2022-10-08T04:36:18.596Z,96226.66
2022-10-08T04:38:47.808Z,96227.40
2022-10-08T04:41:17.089Z,96228.83
2022-10-08T04:43:46.371Z,96228.67
2022-10-08T04:46:17.097Z,96231.81
2022-10-08T04:48:50.300Z,96233.93
2022-10-08T04:51:19.603Z,96233.64
2022-10-08T04:53:48.003Z,96235.43
2022-10-08T04:56:22.106Z,96235.43
2022-10-08T04:58:50.676Z,96233.80
2022-10-08T05:01:20.300Z,96233.84
2022-10-08T05:03:50.639Z,96236.48
2022-10-08T05:06:21.153Z,96233.00
2022-10-08T05:08:50.062Z,96231.31
2022-10-08T05:11:19.143Z,96227.40
2022-10-08T05:13:52.082Z,96229.80
2022-10-08T05:16:20.995Z,96229.45
2022-10-08T05:18:51.968Z,96231.98
2022-10-08T05:21:24.082Z,96231.90
2022-10-08T05:23:59.698Z,96234.21
2022-10-08T05:26:57.969Z,96234.86
2022-10-08T05:29:19.834Z,96233.52
2022-10-08T05:31:48.065Z,96237.34
2022-10-08T05:34:16.960Z,96234.77
2022-10-08T05:36:45.139Z,96236.23
2022-10-08T05:39:13.512Z,96233.69
2022-10-08T05:41:42.393Z,96234.61
2022-10-08T05:44:11.611Z,96231.12
2022-10-08T05:46:40.732Z,96231.52
2022-10-08T05:49:20.840Z,96234.44
2022-10-08T05:51:49.964Z,96234.11
2022-10-08T05:54:19.354Z,96235.58
2022-10-08T05:56:47.969Z,96232.41
2022-10-08T05:59:22.214Z,96230.33
2022-10-08T06:01:51.461Z,96234.80
2022-10-08T06:04:19.592Z,96235.19
2022-10-08T06:06:48.126Z,96230.53
2022-10-08T06:09:18.952Z,96229.82
2022-10-08T06:11:48.658Z,96228.08
2022-10-08T06:14:17.775Z,96228.10
2022-10-08T06:16:46.288Z,96231.20
2022-10-08T06:19:14.738Z,96231.98
2022-10-08T06:21:42.909Z,96231.04
2022-10-08T06:24:12.416Z,96230.84
2022-10-08T06:26:43.392Z,96234.20
2022-10-08T06:29:15.531Z,96233.27
2022-10-08T06:31:45.444Z,96229.81
2022-10-08T06:34:14.642Z,96231.52
2022-10-08T06:36:42.712Z,96232.10
2022-10-08T06:39:13.694Z,96235.61
2022-10-08T06:41:42.251Z,96229.60
2022-10-08T06:44:13.598Z,96231.39
2022-10-08T06:46:42.567Z,96232.16
2022-10-08T06:49:12.208Z,96229.44
2022-10-08T06:51:40.708Z,96226.53
2022-10-08T06:54:08.982Z,96225.08
2022-10-08T06:56:38.573Z,96224.08
2022-10-08T06:59:07.988Z,96222.00
2022-10-08T07:01:37.284Z,96218.84
2022-10-08T07:04:07.198Z,96222.05
2022-10-08T07:06:35.583Z,96221.20
2022-10-08T07:09:06.861Z,96221.13
2022-10-08T07:11:35.398Z,96226.02
2022-10-08T07:14:03.991Z,96224.42
2022-10-08T07:16:33.045Z,96228.34
2022-10-08T07:19:01.694Z,96229.14
2022-10-08T07:21:30.867Z,96228.82
2022-10-08T07:24:01.099Z,96222.60
2022-10-08T07:26:33.326Z,96223.17
2022-10-08T07:29:08.492Z,96219.48
2022-10-08T07:31:38.124Z,96226.79
2022-10-08T07:34:11.037Z,96223.45
2022-10-08T07:36:40.311Z,96218.48
2022-10-08T07:39:19.137Z,96217.46
2022-10-08T07:41:49.394Z,96219.78
2022-10-08T07:44:18.137Z,96214.61
2022-10-08T07:46:53.435Z,96215.79
2022-10-08T07:49:21.665Z,96216.71
2022-10-08T07:51:49.841Z,96215.61
2022-10-08T07:54:19.954Z,96213.95
2022-10-08T07:56:48.357Z,96211.77
2022-10-08T07:59:16.576Z,96209.15
2022-10-08T08:01:45.793Z,96209.53
2022-10-08T08:04:15.277Z,96208.14
2022-10-08T08:06:47.656Z,96201.85
2022-10-08T08:09:16.593Z,96200.61
2022-10-08T08:11:46.584Z,96198.61
2022-10-08T08:14:15.091Z,96199.30
2022-10-08T08:16:43.141Z,96201.27
2022-10-08T08:19:11.344Z,96201.95
2022-10-08T08:21:39.662Z,96200.63
2022-10-08T08:24:17.014Z,96196.07
2022-10-08T08:26:45.291Z,96196.08
2022-10-08T08:29:18.812Z,96198.23
2022-10-08T08:31:49.832Z,96196.33
2022-10-08T08:34:23.476Z,96191.35
2022-10-08T08:36:56.090Z,96191.36
2022-10-08T08:39:27.580Z,96183.23
2022-10-08T08:42:20.725Z,96182.84
2022-10-08T08:44:57.606Z,96181.02
2022-10-08T08:47:45.960Z,96177.46
2022-10-08T08:50:29.396Z,96175.94
2022-10-08T08:52:57.879Z,96174.66
2022-10-08T08:55:44.057Z,96172.91
2022-10-08T08:58:40.840Z,96173.25
2022-10-08T09:01:08.957Z,96169.84
2022-10-08T09:03:44.720Z,96168.33
2022-10-08T09:06:16.264Z,96169.23
2022-10-08T09:08:48.069Z,96167.70
2022-10-08T09:11:19.664Z,96165.88
2022-10-08T09:13:47.718Z,96167.06
2022-10-08T09:16:18.771Z,96161.82
2022-10-08T09:18:49.808Z,96162.89
2022-10-08T09:21:19.997Z,96161.36
2022-10-08T09:23:48.684Z,96156.14
2022-10-08T09:26:22.459Z,96151.81
2022-10-08T09:28:52.259Z,96152.13
2022-10-08T09:31:38.757Z,96149.65
2022-10-08T09:34:18.914Z,96147.19
2022-10-08T09:37:13.581Z,96145.94
2022-10-08T09:40:08.076Z,96145.23
2022-10-08T09:42:36.236Z,96144.07
2022-10-08T09:45:35.372Z,96141.69
2022-10-08T09:48:17.896Z,96137.16
2022-10-08T09:50:57.525Z,96135.23
2022-10-08T09:53:48.968Z,96136.78
2022-10-08T09:56:27.959Z,96130.67
2022-10-08T09:59:02.895Z,96128.76
2022-10-08T10:01:32.101Z,96128.39
2022-10-08T10:04:02.855Z,96129.94
2022-10-08T10:06:34.579Z,96126.44
2022-10-08T10:09:11.770Z,96126.22
2022-10-08T10:11:49.587Z,96125.57
2022-10-08T10:14:45.283Z,96120.17
2022-10-08T10:17:26.081Z,96113.48
2022-10-08T10:20:26.486Z,96107.03
2022-10-08T10:23:12.818Z,96103.56
2022-10-08T10:25:53.208Z,96103.94
2022-10-08T10:28:29.497Z,96100.55
2022-10-08T10:31:06.356Z,96095.05
2022-10-08T10:33:41.023Z,96088.65
2022-10-08T10:36:14.150Z,96087.52
2022-10-08T10:38:52.358Z,96086.59
2022-10-08T10:41:33.197Z,96084.07
2022-10-08T10:44:10.140Z,96080.52
2022-10-08T10:46:46.548Z,96077.88
2022-10-08T10:49:36.045Z,96074.52
2022-10-08T10:52:13.326Z,96070.00
2022-10-08T10:55:06.113Z,96065.45
2022-10-08T10:58:18.896Z,96062.80
2022-10-08T11:01:12.388Z,96053.58
2022-10-08T11:04:08.910Z,96048.95
2022-10-08T11:07:01.538Z,96042.34
2022-10-08T11:09:36.937Z,96041.06
2022-10-08T11:12:25.239Z,96039.44
2022-10-08T11:14:53.312Z,96037.42
2022-10-08T11:17:43.613Z,96028.05
2022-10-08T11:20:23.906Z,96023.13
2022-10-08T11:22:55.027Z,96019.52
2022-10-08T11:25:49.775Z,96016.34
2022-10-08T11:28:47.926Z,96018.29
2022-10-08T11:31:42.323Z,96010.05
2022-10-08T11:34:20.427Z,96011.14
2022-10-08T11:37:16.424Z,96007.71
2022-10-08T11:40:00.158Z,96003.81
2022-10-08T11:42:40.731Z,96003.00
2022-10-08T11:45:23.653Z,95997.48
2022-10-08T11:47:57.658Z,95996.17
2022-10-08T11:50:33.839Z,95987.21
2022-10-08T11:53:11.622Z,95989.30
2022-10-08T11:55:47.703Z,95990.41
2022-10-08T11:58:31.251Z,95987.20
2022-10-08T12:01:08.126Z,95983.04
2022-10-08T12:03:39.986Z,95979.67
2022-10-08T12:06:29.344Z,95973.89
2022-10-08T12:08:59.594Z,95972.48
2022-10-08T12:11:42.896Z,95970.40
2022-10-08T12:14:10.866Z,95966.22
2022-10-08T12:16:50.960Z,95964.63
2022-10-08T12:19:34.663Z,95965.58
2022-10-08T12:22:15.119Z,95966.45
2022-10-08T12:24:50.477Z,95962.80
2022-10-08T12:27:18.846Z,95963.40
2022-10-08T12:29:58.603Z,95959.77
2022-10-08T12:32:29.165Z,95959.71
2022-10-08T12:34:58.225Z,95957.61
2022-10-08T12:37:47.914Z,95956.16
2022-10-08T12:40:22.545Z,95954.39
2022-10-08T12:42:59.108Z,95954.61
2022-10-08T12:45:34.581Z,95948.27
2022-10-08T12:48:14.067Z,95944.36
2022-10-08T12:51:00.506Z,95945.30
2022-10-08T12:53:29.733Z,95937.56
2022-10-08T12:55:58.589Z,95937.19
2022-10-08T12:58:31.476Z,95936.87
2022-10-08T13:01:03.060Z,95934.11
2022-10-08T13:03:31.402Z,95933.94
2022-10-08T13:06:15.663Z,95932.77
2022-10-08T13:08:43.940Z,95932.67
2022-10-08T13:11:14.862Z,95931.65
2022-10-08T13:13:49.838Z,95930.23
2022-10-08T13:16:18.450Z,95928.41
2022-10-08T13:18:58.699Z,95928.64
2022-10-08T13:21:36.783Z,95924.44
2022-10-08T13:24:11.395Z,95923.68
2022-10-08T13:26:42.035Z,95921.64
2022-10-08T13:29:22.639Z,95918.53
2022-10-08T13:32:12.688Z,95917.28
2022-10-08T13:34:40.853Z,95919.41
2022-10-08T13:37:31.573Z,95919.42
2022-10-08T13:40:05.224Z,95916.96
2022-10-08T13:42:36.922Z,95918.80
2022-10-08T13:45:13.134Z,95920.80
2022-10-08T13:47:41.261Z,95917.14
2022-10-08T13:50:10.362Z,95914.41
2022-10-08T13:52:44.338Z,95913.99
2022-10-08T13:55:29.926Z,95914.72
2022-10-08T13:58:02.285Z,95914.58
2022-10-08T14:00:32.796Z,95916.80
2022-10-08T14:03:01.236Z,95912.29
2022-10-08T14:05:32.913Z,95912.52
2022-10-08T14:08:04.978Z,95907.95
2022-10-08T14:10:34.395Z,95906.98
2022-10-08T14:13:02.459Z,95900.59
2022-10-08T14:15:30.514Z,95898.89
2022-10-08T14:17:58.623Z,95896.73
2022-10-08T14:20:26.769Z,95895.52
2022-10-08T14:22:54.798Z,95892.99
2022-10-08T14:25:25.914Z,95889.89
2022-10-08T14:27:53.854Z,95888.34
2022-10-08T14:30:22.165Z,95889.75
2022-10-08T14:32:50.314Z,95890.41
2022-10-08T14:35:18.937Z,95888.13
2022-10-08T14:37:47.826Z,95890.05
2022-10-08T14:40:20.419Z,95887.50
2022-10-08T14:42:50.256Z,95886.70
2022-10-08T14:45:18.874Z,95887.95
2022-10-08T14:47:47.041Z,95890.55
2022-10-08T14:50:15.220Z,95888.30
2022-10-08T14:52:44.461Z,95891.92
2022-10-08T14:55:13.512Z,95887.25
2022-10-08T14:57:41.510Z,95882.73
2022-10-08T15:00:10.580Z,95882.33
2022-10-08T15:02:39.087Z,95885.74
2022-10-08T15:05:07.766Z,95881.06
2022-10-08T15:07:36.083Z,95885.66
2022-10-08T15:10:05.680Z,95880.98
2022-10-08T15:12:34.528Z,95884.54
2022-10-08T15:15:03.530Z,95884.98
2022-10-08T15:17:31.799Z,95890.95
2022-10-08T15:19:59.983Z,95893.16
2022-10-08T15:22:28.066Z,95891.61
2022-10-08T15:24:56.232Z,95892.63
2022-10-08T15:27:24.182Z,95895.00
2022-10-08T15:29:52.178Z,95896.98
2022-10-08T15:32:20.351Z,95897.20
2022-10-08T15:34:48.723Z,95894.45
2022-10-08T15:37:16.918Z,95898.47
2022-10-08T15:39:44.979Z,95902.28
2022-10-08T15:42:13.352Z,95903.91
2022-10-08T15:44:44.197Z,95903.84
2022-10-08T15:47:12.213Z,95909.02
2022-10-08T15:49:42.593Z,95911.80
2022-10-08T15:52:14.120Z,95913.30
2022-10-08T15:54:42.627Z,95915.98
2022-10-08T15:57:13.054Z,95918.17
2022-10-08T15:59:41.673Z,95921.32
2022-10-08T16:02:17.113Z,95923.52
2022-10-08T16:04:47.697Z,95922.31
2022-10-08T16:07:16.999Z,95920.49
2022-10-08T16:09:45.961Z,95922.12
2022-10-08T16:12:14.098Z,95926.86
2022-10-08T16:14:42.182Z,95937.08
2022-10-08T16:17:10.375Z,95938.05
2022-10-08T16:19:38.660Z,95939.58
2022-10-08T16:22:08.330Z,95941.10
2022-10-08T16:24:36.517Z,95943.66
2022-10-08T16:27:04.814Z,95940.92
2022-10-08T16:29:32.959Z,95942.95
2022-10-08T16:32:01.376Z,95939.12
2022-10-08T16:34:31.256Z,95940.55
2022-10-08T16:37:01.385Z,95940.52
2022-10-08T16:39:29.457Z,95940.80
2022-10-08T16:41:57.341Z,95947.81
2022-10-08T16:44:25.911Z,95951.29
2022-10-08T16:46:54.285Z,95952.98
2022-10-08T16:49:31.167Z,95958.71
2022-10-08T16:52:04.843Z,95958.01
2022-10-08T16:54:33.375Z,95959.52
2022-10-08T16:57:01.533Z,95963.20
2022-10-08T16:59:30.524Z,95961.20
2022-10-08T17:02:00.768Z,95963.75
2022-10-08T17:04:29.851Z,95959.84
2022-10-08T17:06:58.255Z,95961.11
2022-10-08T17:09:26.414Z,95959.84
2022-10-08T17:11:54.929Z,95961.68
2022-10-08T17:14:23.075Z,95963.61
2022-10-08T17:16:51.611Z,95960.90
2022-10-08T17:19:19.827Z,95965.14
2022-10-08T17:21:48.106Z,95968.97
2022-10-08T17:24:16.236Z,95972.27
2022-10-08T17:26:44.666Z,95971.85
2022-10-08T17:29:13.251Z,95973.51
2022-10-08T17:31:42.364Z,95974.73
2022-10-08T17:34:11.701Z,95971.48
2022-10-08T17:36:42.646Z,95974.89
2022-10-08T17:39:13.636Z,95972.23
2022-10-08T17:41:43.845Z,95975.10
2022-10-08T17:44:12.339Z,95973.09
2022-10-08T17:46:45.914Z,95972.62
2022-10-08T17:49:17.333Z,95970.52
2022-10-08T17:51:46.788Z,95974.17
2022-10-08T17:54:19.320Z,95976.50
2022-10-08T17:56:48.476Z,95974.30
2022-10-08T17:59:22.892Z,95976.09
2022-10-08T18:01:51.674Z,95970.69
2022-10-08T18:04:20.476Z,95970.80
2022-10-08T18:06:48.950Z,95973.11
2022-10-08T18:09:19.664Z,95971.98
2022-10-08T18:11:53.489Z,95972.61
2022-10-08T18:14:22.592Z,95970.86
2022-10-08T18:16:51.187Z,95968.77
2022-10-08T18:19:19.972Z,95968.77
2022-10-08T18:21:49.091Z,95966.23
2022-10-08T18:24:18.065Z,95967.94
2022-10-08T18:26:47.058Z,95962.95
2022-10-08T18:29:16.369Z,95964.05
2022-10-08T18:31:45.264Z,95962.85
2022-10-08T18:34:16.923Z,95959.96
2022-10-08T18:36:46.838Z,95962.13
2022-10-08T18:39:23.658Z,95963.02
2022-10-08T18:41:56.587Z,95962.89
2022-10-08T18:44:26.339Z,95962.17
2022-10-08T18:46:54.474Z,95968.48
2022-10-08T18:49:30.772Z,95968.20
2022-10-08T18:51:59.982Z,95969.67
2022-10-08T18:54:28.121Z,95973.20
2022-10-08T18:56:57.111Z,95979.89
2022-10-08T18:59:25.602Z,95979.24
2022-10-08T19:01:58.321Z,95978.09
2022-10-08T19:04:27.688Z,95977.70
2022-10-08T19:06:56.264Z,95979.46
2022-10-08T19:09:24.550Z,95978.60
2022-10-08T19:11:54.229Z,95976.31
2022-10-08T19:14:23.366Z,95975.39
2022-10-08T19:16:52.551Z,95974.48
2022-10-08T19:19:25.376Z,95975.22
2022-10-08T19:21:55.086Z,95976.00
2022-10-08T19:24:25.629Z,95977.80
2022-10-08T19:26:56.102Z,95977.64
2022-10-08T19:29:28.943Z,95980.75
2022-10-08T19:31:57.145Z,95985.63
2022-10-08T19:34:26.899Z,95990.89
2022-10-08T19:36:55.365Z,95993.52
2022-10-08T19:39:27.643Z,95992.85
2022-10-08T19:41:55.724Z,95995.77
2022-10-08T19:44:24.601Z,96000.17
2022-10-08T19:46:52.740Z,95998.63
2022-10-08T19:49:22.291Z,96000.42
2022-10-08T19:51:50.360Z,95997.52
2022-10-08T19:54:18.536Z,96000.33
2022-10-08T19:56:46.822Z,95998.00
2022-10-08T19:59:15.364Z,95997.99
2022-10-08T20:01:45.021Z,96001.66
2022-10-08T20:04:14.133Z,96000.41
2022-10-08T20:06:43.730Z,96001.27
2022-10-08T20:09:13.539Z,96000.92
2022-10-08T20:11:43.909Z,96001.05
2022-10-08T20:14:14.510Z,95999.80
2022-10-08T20:16:43.480Z,95996.40
2022-10-08T20:19:19.411Z,95997.40
2022-10-08T20:21:48.759Z,95998.42
2022-10-08T20:24:18.563Z,95994.73
2022-10-08T20:26:49.086Z,95996.73
2022-10-08T20:29:20.837Z,95998.83
2022-10-08T20:31:54.319Z,95998.09
2022-10-08T20:34:28.659Z,95997.13
2022-10-08T20:37:01.526Z,95998.56
2022-10-08T20:39:30.243Z,95998.11
2022-10-08T20:41:59.859Z,95991.33
2022-10-08T20:44:27.877Z,95991.76
2022-10-08T20:46:56.186Z,95990.11
2022-10-08T20:49:25.201Z,95993.64
2022-10-08T20:51:53.276Z,95999.09
2022-10-08T20:54:21.444Z,95997.23
2022-10-08T20:56:49.831Z,95996.80
2022-10-08T20:59:19.339Z,95996.01
2022-10-08T21:01:50.128Z,95995.34
2022-10-08T21:04:21.035Z,95996.70
2022-10-08T21:06:50.521Z,95999.06
2022-10-08T21:09:22.236Z,95999.48
2022-10-08T21:11:50.377Z,96001.23
2022-10-08T21:14:21.498Z,96004.48
2022-10-08T21:16:49.987Z,96005.40
2022-10-08T21:19:22.170Z,96005.45
2022-10-08T21:21:50.731Z,96008.04
2022-10-08T21:24:19.117Z,96005.70
2022-10-08T21:26:47.396Z,96003.16
2022-10-08T21:29:15.512Z,96006.70
2022-10-08T21:31:44.158Z,96003.29
2022-10-08T21:34:13.586Z,96003.63
2022-10-08T21:36:42.289Z,96002.86
2022-10-08T21:39:15.398Z,96001.38
2022-10-08T21:41:44.031Z,96004.77
2022-10-08T21:44:12.558Z,96002.62
2022-10-08T21:46:42.321Z,96005.57
2022-10-08T21:49:16.288Z,96005.63
2022-10-08T21:51:44.848Z,96006.20
2022-10-08T21:54:13.808Z,96004.17
2022-10-08T21:56:43.095Z,96006.13
2022-10-08T21:59:14.493Z,96004.73
2022-10-08T22:01:48.157Z,96003.73
2022-10-08T22:04:19.284Z,96001.68
2022-10-08T22:06:50.217Z,96001.56
2022-10-08T22:09:24.892Z,96000.21
2022-10-08T22:11:54.385Z,95997.46
2022-10-08T22:14:23.099Z,95996.40
2022-10-08T22:16:51.554Z,95992.90
2022-10-08T22:19:20.402Z,95991.08
2022-10-08T22:21:48.732Z,95987.17
2022-10-08T22:24:16.909Z,95986.67
2022-10-08T22:26:47.383Z,95984.86
2022-10-08T22:29:16.339Z,95986.63
2022-10-08T22:31:45.154Z,95983.05
2022-10-08T22:34:13.515Z,95979.33
2022-10-08T22:36:43.893Z,95976.46
2022-10-08T22:39:12.523Z,95975.61
2022-10-08T22:41:40.583Z,95978.44
2022-10-08T22:44:08.655Z,95979.05
2022-10-08T22:46:39.539Z,95977.21
2022-10-08T22:49:10.853Z,95979.05
2022-10-08T22:51:39.845Z,95973.73
2022-10-08T22:54:08.355Z,95976.36
2022-10-08T22:56:36.599Z,95974.68
2022-10-08T22:59:04.994Z,95976.27
2022-10-08T23:01:33.257Z,95977.91
2022-10-08T23:04:01.243Z,95983.52
2022-10-08T23:06:34.555Z,95980.20
2022-10-08T23:09:06.806Z,95982.73
2022-10-08T23:11:35.696Z,95975.81
2022-10-08T23:14:06.067Z,95980.41
2022-10-08T23:16:34.899Z,95979.92
2022-10-08T23:19:06.783Z,95982.63
2022-10-08T23:21:36.812Z,95981.80
2022-10-08T23:24:06.509Z,95982.86
2022-10-08T23:26:36.352Z,95979.60
2022-10-08T23:29:05.322Z,95980.97
2022-10-08T23:31:36.044Z,95975.69
2022-10-08T23:34:05.695Z,95977.79
2022-10-08T23:36:36.911Z,95975.40
2022-10-08T23:39:06.819Z,95975.90
2022-10-08T23:41:36.128Z,95976.11
2022-10-08T23:44:04.917Z,95976.50
2022-10-08T23:46:33.503Z,95969.88
2022-10-08T23:49:01.988Z,95973.50
2022-10-08T23:51:32.351Z,95972.70
2022-10-08T23:54:03.860Z,95971.33
2022-10-08T23:56:31.941Z,95973.00
2022-10-08T23:59:00.135Z,95970.48
